createdAt,value
2018-12-19T00:01:46.508Z,36.53
2018-12-19T00:04:19.596Z,35.85
2018-12-19T00:06:45.675Z,38.67
2018-12-19T00:09:11.877Z,41.07
2018-12-19T00:11:37.993Z,32.28
2018-12-19T00:14:04.428Z,36.00
2018-12-19T00:16:30.601Z,38.10
2018-12-19T00:18:56.718Z,34.40
2018-12-19T00:21:22.846Z,34.23
2018-12-19T00:23:49.105Z,36.17
2018-12-19T00:26:15.310Z,37.42
2018-12-19T00:28:41.575Z,38.40
2018-12-19T00:31:07.777Z,35.00
2018-12-19T00:33:34.114Z,36.87
2018-12-19T00:36:00.257Z,29.87
2018-12-19T00:38:26.551Z,34.30
2018-12-19T00:40:52.801Z,37.03
2018-12-19T00:43:18.993Z,36.97
2018-12-19T00:45:45.172Z,35.53
2018-12-19T00:48:11.620Z,35.15
2018-12-19T00:50:37.754Z,32.37
2018-12-19T00:53:03.959Z,31.37
2018-12-19T00:55:30.355Z,38.98
2018-12-19T00:57:56.557Z,34.33
2018-12-19T01:00:22.854Z,30.87
2018-12-19T01:02:49.022Z,27.87
2018-12-19T01:05:15.241Z,32.37
2018-12-19T01:07:41.480Z,29.47
2018-12-19T01:10:07.895Z,30.83
2018-12-19T01:12:33.991Z,31.97
2018-12-19T01:15:00.088Z,28.30
2018-12-19T01:17:26.204Z,30.20
2018-12-19T01:19:52.329Z,27.17
2018-12-19T01:22:18.544Z,25.20
2018-12-19T01:24:44.699Z,24.33
2018-12-19T01:27:10.826Z,30.77
2018-12-19T01:29:36.945Z,25.00
2018-12-19T01:32:03.168Z,23.87
2018-12-19T01:34:29.292Z,24.43
2018-12-19T01:36:55.586Z,22.30
2018-12-19T01:39:22.528Z,23.97
2018-12-19T01:41:49.058Z,22.20
2018-12-19T01:44:15.302Z,24.70
2018-12-19T01:46:41.504Z,21.40
2018-12-19T01:49:07.589Z,24.87
2018-12-19T01:51:33.828Z,18.53
2018-12-19T01:54:00.082Z,19.45
2018-12-19T01:56:26.319Z,21.27
2018-12-19T01:58:52.525Z,23.10
2018-12-19T02:01:18.938Z,21.15
2018-12-19T02:03:45.032Z,17.90
2018-12-19T02:06:11.149Z,18.80
2018-12-19T02:08:37.270Z,21.20
2018-12-19T02:11:03.572Z,23.02
2018-12-19T02:13:29.647Z,18.63
2018-12-19T02:15:55.978Z,20.17
2018-12-19T02:18:22.218Z,19.10
2018-12-19T02:20:48.344Z,18.83
2018-12-19T02:23:14.562Z,17.50
2018-12-19T02:25:40.696Z,21.23
2018-12-19T02:28:07.026Z,19.00
2018-12-19T02:30:33.724Z,18.07
2018-12-19T02:32:59.993Z,19.47
2018-12-19T02:35:26.295Z,18.57
2018-12-19T02:37:52.396Z,19.83
2018-12-19T02:40:18.672Z,17.13
2018-12-19T02:42:45.518Z,17.47
2018-12-19T02:45:11.649Z,18.17
2018-12-19T02:47:37.847Z,13.77
2018-12-19T02:50:04.921Z,16.47
2018-12-19T02:52:31.096Z,14.87
2018-12-19T02:54:57.388Z,17.13
2018-12-19T02:57:23.645Z,19.37
2018-12-19T02:59:49.774Z,16.73
2018-12-19T03:02:16.028Z,14.93
2018-12-19T03:04:42.127Z,18.00
2018-12-19T03:07:08.252Z,18.30
2018-12-19T03:09:34.388Z,15.63
2018-12-19T03:12:00.629Z,15.90
2018-12-19T03:14:26.997Z,16.12
2018-12-19T03:16:53.097Z,15.50
2018-12-19T03:19:19.457Z,16.87
2018-12-19T03:21:45.682Z,20.40
2018-12-19T03:24:12.308Z,13.63
2018-12-19T03:26:38.421Z,15.38
2018-12-19T03:29:04.562Z,12.77
2018-12-19T03:31:30.774Z,17.10
2018-12-19T03:33:56.886Z,14.37
2018-12-19T03:36:23.319Z,15.18
2018-12-19T03:38:49.541Z,14.00
2018-12-19T03:41:15.777Z,15.50
2018-12-19T03:43:42.004Z,13.83
2018-12-19T03:46:08.306Z,15.37
2018-12-19T03:48:40.668Z,13.17
2018-12-19T03:51:06.885Z,13.53
2018-12-19T03:53:33.109Z,12.40
2018-12-19T03:55:59.439Z,15.00
2018-12-19T03:58:25.817Z,16.10
2018-12-19T04:03:47.928Z,18.23
2018-12-19T04:06:14.341Z,14.07
2018-12-19T04:08:47.669Z,17.33
2018-12-19T04:11:13.855Z,15.47
2018-12-19T04:13:40.123Z,14.40
2018-12-19T04:16:06.473Z,12.90
2018-12-19T04:18:32.660Z,14.20
2018-12-19T04:20:58.973Z,14.10
2018-12-19T04:23:25.408Z,16.40
2018-12-19T04:25:51.581Z,15.40
2018-12-19T04:28:17.825Z,14.30
2018-12-19T04:30:44.074Z,14.50
2018-12-19T04:33:10.366Z,15.87
2018-12-19T04:35:37.432Z,13.33
2018-12-19T04:38:03.725Z,13.80
2018-12-19T04:40:29.930Z,15.27
2018-12-19T04:42:56.176Z,13.60
2018-12-19T04:45:22.357Z,15.00
2018-12-19T04:47:48.694Z,14.17
2018-12-19T04:50:15.066Z,15.83
2018-12-19T04:52:41.248Z,13.60
2018-12-19T04:55:07.472Z,12.60
2018-12-19T04:57:33.730Z,13.40
2018-12-19T04:59:59.927Z,15.43
2018-12-19T05:02:26.111Z,14.17
2018-12-19T05:04:52.191Z,14.20
2018-12-19T05:07:20.115Z,15.60
2018-12-19T05:09:46.480Z,16.90
2018-12-19T05:12:12.738Z,13.80
2018-12-19T05:14:39.398Z,15.87
2018-12-19T05:17:05.577Z,18.23
2018-12-19T05:19:31.704Z,17.10
2018-12-19T05:21:57.832Z,15.30
2018-12-19T05:24:24.925Z,15.30
2018-12-19T05:26:51.129Z,17.20
2018-12-19T05:29:17.456Z,17.00
2018-12-19T05:31:43.613Z,18.70
2018-12-19T05:34:09.740Z,19.53
2018-12-19T05:36:36.111Z,19.23
2018-12-19T05:39:04.768Z,17.77
2018-12-19T05:41:30.958Z,18.73
2018-12-19T05:43:57.072Z,16.20
2018-12-19T05:46:23.246Z,17.15
2018-12-19T05:48:49.441Z,17.60
2018-12-19T05:51:16.397Z,16.50
2018-12-19T05:53:42.647Z,16.03
2018-12-19T05:56:08.773Z,18.37
2018-12-19T05:58:34.948Z,21.00
2018-12-19T06:01:01.157Z,18.10
2018-12-19T06:03:27.380Z,16.77
2018-12-19T06:05:53.532Z,18.10
2018-12-19T06:08:19.684Z,17.25
2018-12-19T06:10:52.953Z,18.80
2018-12-19T06:13:19.068Z,17.70
2018-12-19T06:15:45.389Z,17.77
2018-12-19T06:18:11.618Z,16.95
2018-12-19T06:20:37.724Z,14.37
2018-12-19T06:23:03.829Z,19.13
2018-12-19T06:25:30.060Z,16.90
2018-12-19T06:27:56.669Z,16.63
2018-12-19T06:30:23.880Z,18.87
2018-12-19T06:32:50.328Z,19.60
2018-12-19T06:35:16.466Z,23.50
2018-12-19T06:37:43.375Z,17.50
2018-12-19T06:40:09.580Z,19.40
2018-12-19T06:42:35.857Z,17.47
2018-12-19T06:45:02.495Z,19.30
2018-12-19T06:47:28.828Z,19.77
2018-12-19T06:49:55.065Z,18.87
2018-12-19T06:52:21.285Z,16.70
2018-12-19T06:54:47.422Z,19.10
2018-12-19T06:57:13.786Z,17.73
2018-12-19T06:59:40.148Z,18.60
2018-12-19T07:02:06.496Z,16.52
2018-12-19T07:04:32.669Z,20.63
2018-12-19T07:06:58.884Z,23.37
2018-12-19T07:09:25.303Z,19.03
2018-12-19T07:11:51.540Z,23.60
2018-12-19T07:14:17.771Z,20.10
2018-12-19T07:16:43.895Z,18.93
2018-12-19T07:19:10.117Z,23.22
2018-12-19T07:21:37.238Z,19.27
2018-12-19T07:24:03.583Z,20.83
2018-12-19T07:26:29.841Z,20.37
2018-12-19T07:28:55.961Z,21.57
2018-12-19T07:31:22.169Z,20.07
2018-12-19T07:33:48.432Z,17.90
2018-12-19T07:36:14.663Z,16.03
2018-12-19T07:38:40.832Z,18.70
2018-12-19T07:41:07.051Z,19.92
2018-12-19T07:43:33.235Z,18.40
2018-12-19T07:45:59.342Z,20.17
2018-12-19T07:48:25.890Z,17.30
2018-12-19T07:50:52.129Z,16.93
2018-12-19T07:53:18.253Z,18.80
2018-12-19T07:55:44.608Z,20.95
2018-12-19T07:58:11.178Z,17.70
2018-12-19T08:00:37.577Z,18.23
2018-12-19T08:03:04.672Z,18.87
2018-12-19T08:05:30.777Z,18.93
2018-12-19T08:07:56.880Z,16.60
2018-12-19T08:10:23.025Z,18.05
2018-12-19T08:12:49.186Z,18.80
2018-12-19T08:15:15.302Z,21.80
2018-12-19T08:17:41.378Z,18.13
2018-12-19T08:20:08.021Z,17.62
2018-12-19T08:22:34.960Z,18.13
2018-12-19T08:25:01.079Z,18.37
2018-12-19T08:27:27.249Z,20.70
2018-12-19T08:29:53.360Z,20.63
2018-12-19T08:32:19.889Z,17.20
2018-12-19T08:34:45.989Z,18.67
2018-12-19T08:37:12.098Z,16.83
2018-12-19T08:39:38.301Z,20.55
2018-12-19T08:42:05.897Z,17.90
2018-12-19T08:44:32.222Z,18.05
2018-12-19T08:46:58.400Z,20.50
2018-12-19T08:49:24.879Z,18.33
2018-12-19T08:51:51.206Z,19.47
2018-12-19T08:54:17.713Z,20.53
2018-12-19T08:56:44.004Z,17.37
2018-12-19T08:59:10.234Z,20.13
2018-12-19T09:01:36.419Z,19.43
2018-12-19T09:04:02.737Z,22.45
2018-12-19T09:06:28.865Z,21.43
2018-12-19T09:08:54.999Z,21.20
2018-12-19T09:11:21.067Z,19.37
2018-12-19T09:13:47.209Z,19.12
2018-12-19T09:16:13.815Z,17.20
2018-12-19T09:18:39.927Z,18.80
2018-12-19T09:21:06.039Z,17.87
2018-12-19T09:23:32.520Z,19.37
2018-12-19T09:25:58.644Z,20.90
2018-12-19T09:28:24.892Z,23.50
2018-12-19T09:30:51.103Z,18.80
2018-12-19T09:33:17.199Z,17.80
2018-12-19T09:35:43.313Z,18.37
2018-12-19T09:38:09.505Z,22.90
2018-12-19T09:40:35.781Z,25.57
2018-12-19T09:43:01.902Z,20.00
2018-12-19T09:45:28.124Z,18.17
2018-12-19T09:47:54.360Z,20.82
2018-12-19T09:50:20.540Z,20.53
2018-12-19T09:52:46.904Z,21.97
2018-12-19T09:55:13.106Z,22.03
2018-12-19T09:57:39.674Z,19.50
2018-12-19T10:00:10.346Z,23.50
2018-12-19T10:02:36.495Z,19.47
2018-12-19T10:05:02.983Z,18.03
2018-12-19T10:07:29.800Z,19.87
2018-12-19T10:09:56.317Z,21.70
2018-12-19T10:12:22.454Z,17.98
2018-12-19T10:14:49.600Z,20.07
2018-12-19T10:17:16.021Z,21.80
2018-12-19T10:19:42.143Z,20.45
2018-12-19T10:22:08.334Z,21.07
2018-12-19T10:24:40.679Z,22.07
2018-12-19T10:27:06.814Z,20.40
2018-12-19T10:29:33.075Z,21.57
2018-12-19T10:31:59.204Z,20.17
2018-12-19T10:34:26.276Z,21.73
2018-12-19T10:36:52.458Z,18.27
2018-12-19T10:39:18.882Z,22.95
2018-12-19T10:41:45.142Z,20.17
2018-12-19T10:44:11.861Z,24.03
2018-12-19T10:46:38.421Z,23.93
2018-12-19T10:49:04.896Z,21.13
2018-12-19T10:51:31.182Z,17.93
2018-12-19T10:53:57.290Z,22.43
2018-12-19T10:56:23.519Z,24.73
2018-12-19T10:58:49.698Z,21.63
2018-12-19T11:01:15.816Z,24.95
2018-12-19T11:03:41.986Z,24.30
2018-12-19T11:06:08.264Z,21.00
2018-12-19T11:08:34.588Z,21.85
2018-12-19T11:11:00.956Z,25.40
2018-12-19T11:13:27.296Z,17.67
2018-12-19T11:15:53.657Z,17.90
2018-12-19T11:18:19.974Z,21.70
2018-12-19T11:20:46.476Z,20.57
2018-12-19T11:23:12.717Z,23.30
2018-12-19T11:25:39.034Z,22.90
2018-12-19T11:28:05.372Z,24.50
2018-12-19T11:30:31.700Z,25.10
2018-12-19T11:32:58.173Z,22.57
2018-12-19T11:35:25.253Z,26.12
2018-12-19T11:37:51.408Z,20.57
2018-12-19T11:40:17.661Z,23.70
2018-12-19T11:42:43.766Z,25.80
2018-12-19T11:45:09.933Z,26.20
2018-12-19T11:47:36.307Z,32.03
2018-12-19T11:50:04.944Z,27.07
2018-12-19T11:52:31.164Z,23.23
2018-12-19T11:54:57.462Z,27.67
2018-12-19T11:57:23.781Z,26.10
2018-12-19T11:59:49.997Z,26.70
2018-12-19T12:02:16.254Z,25.27
2018-12-19T12:04:42.404Z,25.07
2018-12-19T12:07:15.645Z,23.93
2018-12-19T12:09:41.875Z,25.00
2018-12-19T12:12:08.055Z,30.67
2018-12-19T12:14:34.274Z,27.58
2018-12-19T12:17:00.541Z,29.03
2018-12-19T12:19:26.935Z,28.47
2018-12-19T12:21:53.270Z,26.90
2018-12-19T12:24:19.474Z,29.97
2018-12-19T12:26:45.626Z,24.80
2018-12-19T12:29:11.831Z,23.52
2018-12-19T12:31:38.286Z,23.63
2018-12-19T12:34:05.354Z,23.57
2018-12-19T12:36:31.587Z,25.70
2018-12-19T12:38:57.824Z,23.40
2018-12-19T12:41:24.155Z,25.47
2018-12-19T12:43:51.205Z,25.57
2018-12-19T12:46:17.386Z,25.23
2018-12-19T12:48:43.465Z,25.27
2018-12-19T12:51:10.317Z,23.65
2018-12-19T12:53:37.890Z,23.73
2018-12-19T12:56:04.086Z,29.02
2018-12-19T12:58:30.409Z,25.33
2018-12-19T13:00:56.659Z,26.17
2018-12-19T13:03:22.809Z,25.10
2018-12-19T13:05:49.022Z,29.20
2018-12-19T13:08:15.387Z,20.40
2018-12-19T13:10:41.735Z,24.53
2018-12-19T13:13:08.102Z,26.47
2018-12-19T13:15:38.327Z,27.57
2018-12-19T13:18:04.724Z,26.10
2018-12-19T13:20:31.143Z,23.20
2018-12-19T13:22:57.993Z,23.83
2018-12-19T13:25:24.317Z,27.83
2018-12-19T13:27:50.654Z,23.50
2018-12-19T13:30:16.865Z,30.87
2018-12-19T13:32:43.108Z,25.67
2018-12-19T13:35:09.269Z,22.73
2018-12-19T13:37:36.634Z,29.92
2018-12-19T13:40:03.569Z,24.83
2018-12-19T13:42:29.765Z,27.00
2018-12-19T13:44:55.885Z,26.53
2018-12-19T13:47:22.073Z,24.43
2018-12-19T13:49:48.331Z,26.27
2018-12-19T13:52:14.553Z,26.10
2018-12-19T13:54:41.024Z,30.00
2018-12-19T13:57:07.252Z,27.62
2018-12-19T13:59:34.132Z,28.57
2018-12-19T14:02:00.269Z,26.17
2018-12-19T14:04:27.504Z,29.40
2018-12-19T14:06:53.846Z,29.50
2018-12-19T14:09:20.488Z,25.30
2018-12-19T14:11:46.712Z,28.07
2018-12-19T14:14:13.140Z,24.60
2018-12-19T14:16:39.373Z,24.90
2018-12-19T14:19:05.493Z,29.03
2018-12-19T14:21:31.749Z,29.10
2018-12-19T14:23:57.907Z,28.10
2018-12-19T14:26:24.036Z,27.67
2018-12-19T14:28:50.297Z,26.42
2018-12-19T14:31:16.545Z,28.70
2018-12-19T14:33:42.717Z,26.63
2018-12-19T14:36:08.975Z,30.72
2018-12-19T14:38:35.085Z,25.07
2018-12-19T14:41:01.432Z,25.20
2018-12-19T14:43:27.573Z,28.83
2018-12-19T14:45:53.853Z,31.97
2018-12-19T14:48:19.987Z,28.67
2018-12-19T14:50:47.119Z,26.55
2018-12-19T14:53:13.423Z,28.40
2018-12-19T14:55:40.253Z,32.10
2018-12-19T14:58:06.434Z,27.50
2018-12-19T15:00:32.937Z,28.70
2018-12-19T15:02:59.135Z,27.05
2018-12-19T15:05:25.368Z,28.33
2018-12-19T15:07:52.277Z,25.43
2018-12-19T15:10:18.517Z,30.20
2018-12-19T15:12:44.621Z,32.20
2018-12-19T15:15:11.804Z,30.60
2018-12-19T15:17:37.945Z,30.13
2018-12-19T15:20:04.522Z,33.63
2018-12-19T15:22:30.878Z,34.90
2018-12-19T15:24:57.003Z,30.77
2018-12-19T15:27:23.213Z,32.90
2018-12-19T15:29:51.277Z,35.00
2018-12-19T15:32:17.540Z,31.80
2018-12-19T15:34:43.733Z,32.80
2018-12-19T15:37:10.274Z,30.43
2018-12-19T15:39:36.423Z,31.77
2018-12-19T15:42:02.774Z,32.87
2018-12-19T15:44:28.982Z,39.53
2018-12-19T15:46:55.221Z,31.50
2018-12-19T15:49:21.369Z,34.67
2018-12-19T15:51:48.464Z,33.98
2018-12-19T15:54:14.679Z,35.87
2018-12-19T15:56:41.017Z,32.40
2018-12-19T15:59:07.253Z,32.07
2018-12-19T16:01:33.775Z,33.13
2018-12-19T16:04:00.009Z,32.73
2018-12-19T16:06:26.532Z,32.47
2018-12-19T16:08:52.688Z,32.57
2018-12-19T16:11:20.064Z,31.50
2018-12-19T16:13:46.880Z,33.48
2018-12-19T16:16:13.908Z,38.40
2018-12-19T16:18:40.793Z,35.57
2018-12-19T16:21:07.014Z,37.90
2018-12-19T16:23:33.180Z,35.20
2018-12-19T16:25:59.359Z,34.70
2018-12-19T16:28:25.603Z,33.87
2018-12-19T16:30:51.766Z,28.92
2018-12-19T16:33:17.873Z,36.10
2018-12-19T16:35:44.037Z,36.33
2018-12-19T16:38:10.211Z,32.77
2018-12-19T16:40:37.525Z,32.50
2018-12-19T16:43:04.836Z,35.67
2018-12-19T16:45:31.382Z,34.95
2018-12-19T16:47:57.638Z,36.60
2018-12-19T16:50:23.747Z,32.50
2018-12-19T16:52:50.722Z,31.80
2018-12-19T16:55:17.844Z,39.73
2018-12-19T16:57:44.080Z,35.77
2018-12-19T17:00:10.435Z,34.20
2018-12-19T17:02:38.680Z,33.40
2018-12-19T17:05:06.456Z,35.97
2018-12-19T17:07:32.561Z,39.63
2018-12-19T17:09:58.711Z,37.73
2018-12-19T17:12:25.399Z,41.53
2018-12-19T17:14:51.585Z,38.80
2018-12-19T17:17:17.717Z,36.20
2018-12-19T17:19:44.609Z,33.92
2018-12-19T17:22:11.788Z,37.10
2018-12-19T17:24:38.786Z,38.50
2018-12-19T17:27:12.550Z,40.57
2018-12-19T17:29:39.603Z,40.47
2018-12-19T17:32:09.214Z,39.60
2018-12-19T17:34:35.346Z,41.07
2018-12-19T17:37:02.895Z,40.87
2018-12-19T17:39:29.895Z,44.60
2018-12-19T17:41:56.015Z,40.43
2018-12-19T17:44:22.333Z,39.47
2018-12-19T17:46:48.469Z,44.42
2018-12-19T17:49:15.170Z,40.05
2018-12-19T17:51:42.284Z,39.57
2018-12-19T17:54:09.414Z,43.37
2018-12-19T17:56:36.581Z,39.00
2018-12-19T17:59:04.800Z,47.95
2018-12-19T18:01:31.059Z,42.63
2018-12-19T18:03:57.151Z,45.83
2018-12-19T18:06:23.441Z,44.25
2018-12-19T18:08:49.574Z,44.60
2018-12-19T18:11:15.678Z,50.90
2018-12-19T18:13:41.997Z,45.03
2018-12-19T18:16:08.294Z,46.67
2018-12-19T18:18:34.513Z,45.10
2018-12-19T18:21:00.695Z,45.80
2018-12-19T18:23:26.960Z,42.13
2018-12-19T18:25:53.120Z,41.43
2018-12-19T18:28:19.897Z,50.05
2018-12-19T18:30:46.142Z,47.53
2018-12-19T18:33:12.253Z,48.37
2018-12-19T18:35:38.448Z,48.15
2018-12-19T18:38:04.633Z,45.80
2018-12-19T18:40:30.746Z,47.23
2018-12-19T18:45:55.934Z,51.70
2018-12-19T18:48:22.129Z,54.15
2018-12-19T18:50:49.444Z,53.03
2018-12-19T18:53:15.570Z,52.37
2018-12-19T18:55:41.830Z,49.67
2018-12-19T18:58:08.128Z,46.80
2018-12-19T19:00:43.154Z,50.97
2018-12-19T19:03:10.087Z,51.57
2018-12-19T19:05:37.315Z,53.07
2018-12-19T19:10:43.025Z,57.67
2018-12-19T19:13:09.310Z,59.03
2018-12-19T19:18:31.416Z,52.40
2018-12-19T19:20:57.617Z,53.63
2018-12-19T19:23:23.953Z,56.60
2018-12-19T19:25:50.102Z,55.90
2018-12-19T19:28:16.298Z,60.87
2018-12-19T19:30:42.371Z,51.68
2018-12-19T19:33:08.717Z,55.03
2018-12-19T19:35:34.935Z,53.67
2018-12-19T19:38:01.171Z,52.98
2018-12-19T19:40:27.370Z,57.23
2018-12-19T19:42:53.568Z,53.20
2018-12-19T19:45:19.962Z,52.65
2018-12-19T19:47:46.079Z,54.80
2018-12-19T19:50:12.756Z,57.10
2018-12-19T19:52:39.001Z,58.50
2018-12-19T19:55:05.451Z,64.10
2018-12-19T19:57:31.567Z,62.30
2018-12-19T19:59:57.702Z,56.23
2018-12-19T20:02:23.906Z,56.23
2018-12-19T20:04:50.138Z,55.20
2018-12-19T20:07:16.300Z,59.53
2018-12-19T20:09:42.784Z,57.60
2018-12-19T20:12:10.230Z,60.63
2018-12-19T20:14:36.596Z,58.20
2018-12-19T20:17:02.969Z,59.55
2018-12-19T20:19:29.481Z,63.10
2018-12-19T20:21:55.707Z,62.33
2018-12-19T20:24:21.944Z,58.80
2018-12-19T20:26:48.417Z,55.63
2018-12-19T20:29:14.709Z,53.85
2018-12-19T20:31:43.620Z,61.67
2018-12-19T20:34:10.627Z,65.67
2018-12-19T20:36:37.256Z,59.87
2018-12-19T20:39:06.370Z,63.37
2018-12-19T20:41:32.467Z,58.17
2018-12-19T20:44:05.894Z,62.30
2018-12-19T20:46:32.252Z,59.93
2018-12-19T20:48:58.515Z,66.57
2018-12-19T20:51:24.718Z,62.07
2018-12-19T20:53:51.063Z,57.77
2018-12-19T20:56:17.293Z,59.90
2018-12-19T20:58:43.520Z,59.80
2018-12-19T21:01:09.736Z,56.60
2018-12-19T21:03:35.869Z,58.07
2018-12-19T21:06:02.301Z,55.00
2018-12-19T21:08:28.526Z,55.20
2018-12-19T21:10:54.720Z,58.27
2018-12-19T21:13:21.196Z,56.55
2018-12-19T21:15:47.410Z,55.57
2018-12-19T21:18:19.676Z,61.23
2018-12-19T21:20:46.004Z,58.83
2018-12-19T21:23:12.357Z,57.27
2018-12-19T21:25:38.442Z,64.50
2018-12-19T21:28:04.849Z,57.43
2018-12-19T21:30:30.996Z,55.52
2018-12-19T21:32:57.133Z,56.53
2018-12-19T21:35:23.388Z,58.80
2018-12-19T21:37:49.667Z,56.40
2018-12-19T21:40:16.154Z,59.63
2018-12-19T21:42:42.951Z,51.93
2018-12-19T21:45:09.308Z,53.00
2018-12-19T21:47:35.561Z,58.73
2018-12-19T21:50:02.193Z,57.40
2018-12-19T21:52:28.760Z,58.33
2018-12-19T21:54:55.098Z,58.10
2018-12-19T21:57:27.439Z,60.80
2018-12-19T21:59:53.789Z,59.73
2018-12-19T22:02:20.010Z,56.37
2018-12-19T22:04:46.530Z,56.93
2018-12-19T22:07:12.882Z,53.77
2018-12-19T22:09:39.102Z,50.15
2018-12-19T22:12:05.661Z,54.87
2018-12-19T22:14:32.027Z,55.57
2018-12-19T22:17:04.595Z,58.80
2018-12-19T22:19:30.939Z,55.50
2018-12-19T22:21:57.300Z,55.50
2018-12-19T22:24:23.433Z,55.27
2018-12-19T22:26:49.632Z,57.73
2018-12-19T22:29:16.193Z,57.87
2018-12-19T22:31:42.408Z,50.53
2018-12-19T22:34:08.497Z,52.27
2018-12-19T22:36:34.916Z,48.63
2018-12-19T22:39:01.224Z,54.90
2018-12-19T22:41:27.557Z,54.43
2018-12-19T22:43:54.477Z,49.23
2018-12-19T22:46:20.740Z,51.60
2018-12-19T22:48:46.920Z,46.40
2018-12-19T22:51:13.185Z,56.70
2018-12-19T22:53:39.276Z,49.55
2018-12-19T22:56:05.551Z,54.60
2018-12-19T22:58:31.714Z,51.50
2018-12-19T23:01:04.318Z,57.08
2018-12-19T23:03:36.753Z,56.20
2018-12-19T23:06:03.166Z,58.90
2018-12-19T23:08:29.562Z,57.20
2018-12-19T23:10:55.913Z,53.60
2018-12-19T23:13:23.192Z,53.70
2018-12-19T23:15:49.429Z,52.20
2018-12-19T23:18:21.988Z,58.70
2018-12-19T23:20:48.520Z,51.00
2018-12-19T23:23:14.769Z,54.25
2018-12-19T23:25:41.011Z,60.00
2018-12-19T23:28:07.337Z,60.60
2018-12-19T23:30:33.707Z,65.17
2018-12-19T23:32:59.892Z,53.40
2018-12-19T23:35:26.165Z,52.23
2018-12-19T23:37:52.256Z,48.37
2018-12-19T23:40:18.788Z,55.73
2018-12-19T23:42:45.063Z,48.10
2018-12-19T23:45:11.567Z,53.02
2018-12-19T23:47:38.758Z,51.50
2018-12-19T23:50:05.282Z,59.53
2018-12-19T23:52:31.635Z,59.90
2018-12-19T23:54:57.822Z,58.57
2018-12-19T23:57:24.070Z,54.93
2018-12-19T23:59:50.380Z,57.53
